Time;durP1;ratioP1;P1;durP2;ratioP2;P2;SDS_P1;SDS_P2;PMS_P1;PMS_P2;Temp;Humidity;BMP_temperature;BMP_pressure;BME280_temperature;BME280_humidity;BME280_pressure;Samples;Min_cycle;Max_cycle;Signal;HPM_P1;HPM_P2
2023/07/08 00:01:15;;;;;;;;;11.40;10.80;;;;;26.15;52.50;99164.50;5087393;27;45516;-63
2023/07/08 00:03:41;;;;;;;;;14.75;12.75;;;;;26.03;52.74;99159.34;5095855;27;45501;-64
2023/07/08 00:06:17;;;;;;;;;12.25;10.75;;;;;25.90;52.67;99140.03;5090832;27;45476;-63
2023/07/08 00:08:43;;;;;;;;;12.80;12.20;;;;;25.82;53.36;99148.06;5096117;27;45394;-64
2023/07/08 00:11:11;;;;;;;;;12.50;12.00;;;;;25.76;53.20;99159.50;5088954;27;45512;-64
2023/07/08 00:13:36;;;;;;;;;11.60;10.40;;;;;25.70;53.52;99157.41;5089993;27;45506;-64
2023/07/08 00:16:02;;;;;;;;;11.75;11.75;;;;;25.63;53.88;99153.66;5089260;27;45565;-63
2023/07/08 00:18:27;;;;;;;;;12.25;12.25;;;;;25.58;53.68;99145.16;5094495;27;45646;-63
2023/07/08 00:20:52;;;;;;;;;10.25;10.25;;;;;25.55;53.89;99162.50;5094695;27;45364;-63
2023/07/08 00:23:21;;;;;;;;;15.75;11.00;;;;;25.50;53.52;99167.50;5093009;27;45723;-64
2023/07/08 00:25:47;;;;;;;;;15.00;12.25;;;;;25.47;54.38;99175.91;5092759;27;45469;-63
2023/07/08 00:28:18;;;;;;;;;11.60;9.80;;;;;25.47;54.18;99175.09;5092557;27;45469;-64
2023/07/08 00:30:43;;;;;;;;;12.60;12.60;;;;;25.45;54.99;99179.78;5092958;27;45477;-64
2023/07/08 00:33:09;;;;;;;;;17.50;14.75;;;;;25.43;54.62;99176.41;5092798;27;45498;-63
2023/07/08 00:35:37;;;;;;;;;11.75;10.75;;;;;25.42;54.51;99182.81;5094745;27;45434;-63
2023/07/08 00:38:31;;;;;;;;;11.50;11.50;;;;;25.44;54.19;99183.50;5096268;27;46590;-63
2023/07/08 00:41:02;;;;;;;;;8.80;7.40;;;;;25.47;54.40;99185.91;5092025;27;45384;-64
2023/07/08 00:43:36;;;;;;;;;13.50;11.50;;;;;25.50;54.18;99196.34;5095063;27;45317;-64
2023/07/08 00:46:11;;;;;;;;;13.00;10.00;;;;;25.55;53.79;99203.00;5095577;27;45572;-64
2023/07/08 00:48:39;;;;;;;;;10.60;9.20;;;;;25.54;53.80;99204.00;5094247;27;45721;-63
2023/07/08 00:51:10;;;;;;;;;13.60;10.40;;;;;25.51;53.63;99198.06;5093030;27;45523;-63
2023/07/08 00:53:36;;;;;;;;;12.40;12.40;;;;;25.49;53.44;99225.22;5095394;27;45372;-63
2023/07/08 00:56:22;;;;;;;;;14.00;11.25;;;;;25.49;53.17;99213.56;5095749;27;45483;-63
2023/07/08 00:58:53;;;;;;;;;16.00;12.00;;;;;25.44;54.20;99180.78;5094929;27;45368;-63
2023/07/08 01:01:18;;;;;;;;;9.40;7.00;;;;;25.37;54.55;99158.97;5095558;27;45429;-64
2023/07/08 01:03:55;;;;;;;;;15.50;12.00;;;;;25.39;54.51;99157.81;5095054;27;45414;-64
2023/07/08 01:06:23;;;;;;;;;14.00;14.00;;;;;25.46;55.70;99163.44;5092226;27;45445;-64
2023/07/08 01:08:52;;;;;;;;;15.25;13.00;;;;;25.49;56.34;99163.09;5093227;27;46814;-63
2023/07/08 01:11:21;;;;;;;;;15.00;14.40;;;;;25.54;56.98;99136.50;5087272;27;45422;-64
2023/07/08 01:13:50;;;;;;;;;17.75;15.50;;;;;25.55;56.91;99126.56;5095359;27;45423;-63
2023/07/08 01:16:16;;;;;;;;;15.25;13.75;;;;;25.55;57.01;99122.00;5095286;27;45412;-63
2023/07/08 01:18:42;;;;;;;;;17.80;13.40;;;;;25.57;56.79;99113.75;5094628;27;45449;-64
2023/07/08 01:21:31;;;;;;;;;13.00;12.00;;;;;25.60;56.11;99103.50;5094613;27;45497;-63
2023/07/08 01:23:57;;;;;;;;;15.00;14.75;;;;;25.64;55.83;99093.22;5094694;27;45445;-64
2023/07/08 01:26:25;;;;;;;;;14.00;12.00;;;;;25.69;55.89;99101.72;5094165;27;45420;-63
2023/07/08 01:28:52;;;;;;;;;14.75;14.50;;;;;25.75;54.45;99097.53;5094645;27;45761;-63
2023/07/08 01:31:19;;;;;;;;;14.00;14.00;;;;;25.73;54.04;99095.00;5094852;27;45450;-64
2023/07/08 01:33:45;;;;;;;;;11.60;9.60;;;;;25.66;53.99;99094.78;5094034;27;45616;-64
2023/07/08 01:36:11;;;;;;;;;12.50;12.50;;;;;25.63;54.15;99088.88;5094526;27;45593;-63
2023/07/08 01:38:39;;;;;;;;;12.00;11.60;;;;;25.62;53.82;99084.47;5094355;27;45494;-63
2023/07/08 01:41:04;;;;;;;;;11.20;10.40;;;;;25.65;53.31;99086.81;5090518;27;45462;-63
2023/07/08 01:43:30;;;;;;;;;10.25;8.75;;;;;25.70;53.40;99079.09;5094299;27;45467;-63
2023/07/08 01:46:00;;;;;;;;;13.25;12.75;;;;;25.72;53.42;99079.78;5091889;27;45434;-64
2023/07/08 01:48:38;;;;;;;;;13.40;11.60;;;;;25.69;53.65;99078.25;5093580;27;45390;-63
2023/07/08 01:51:05;;;;;;;;;10.40;9.80;;;;;25.68;54.04;99079.25;5084711;27;45487;-63
2023/07/08 01:53:37;;;;;;;;;14.25;14.00;;;;;25.67;55.28;99085.66;5094825;27;45485;-63
2023/07/08 01:56:04;;;;;;;;;19.50;15.75;;;;;25.66;55.40;99081.28;5084919;27;45450;-63
2023/07/08 01:58:30;;;;;;;;;15.25;13.75;;;;;25.63;55.99;99076.22;5094123;27;46377;-63
2023/07/08 02:00:55;;;;;;;;;14.00;13.25;;;;;25.56;55.72;99068.84;5083948;27;45416;-64
2023/07/08 02:03:22;;;;;;;;;16.50;14.00;;;;;25.52;56.36;99076.41;5095349;27;45436;-63
2023/07/08 02:05:47;;;;;;;;;14.25;14.00;;;;;25.50;56.74;99073.03;5088850;27;45557;-64
2023/07/08 02:08:12;;;;;;;;;13.75;13.75;;;;;25.50;56.61;99072.16;5087432;27;45656;-63
2023/07/08 02:10:39;;;;;;;;;13.00;13.00;;;;;25.48;56.21;99074.19;5085196;27;45588;-63
2023/07/08 02:13:05;;;;;;;;;17.75;15.25;;;;;25.49;56.34;99081.28;5090640;27;45306;-63
2023/07/08 02:15:30;;;;;;;;;16.00;13.00;;;;;25.50;56.48;99081.13;5093994;27;45468;-63
2023/07/08 02:17:56;;;;;;;;;13.25;13.00;;;;;25.51;56.52;99084.66;5094803;27;45774;-64
2023/07/08 02:20:22;;;;;;;;;13.00;12.00;;;;;25.53;56.70;99094.31;5093167;27;45315;-63
2023/07/08 02:22:47;;;;;;;;;7.25;7.25;;;;;25.54;56.43;99097.84;5085515;27;45508;-63
2023/07/08 02:25:12;;;;;;;;;12.50;12.50;;;;;25.53;55.56;99099.72;5093478;27;45424;-63
2023/07/08 02:27:38;;;;;;;;;10.50;10.50;;;;;25.47;56.11;99104.91;5094050;27;45515;-63
2023/07/08 02:30:04;;;;;;;;;15.50;14.00;;;;;25.36;55.71;99108.69;5093976;27;45457;-63
2023/07/08 02:32:30;;;;;;;;;13.00;12.50;;;;;25.30;55.59;99109.31;5094526;27;45426;-63
2023/07/08 02:34:55;;;;;;;;;15.50;14.00;;;;;25.24;55.56;99115.31;5085588;27;45502;-63
2023/07/08 02:37:20;;;;;;;;;14.25;13.00;;;;;25.18;55.70;99114.06;5093870;27;45512;-63
2023/07/08 02:39:46;;;;;;;;;13.00;13.00;;;;;25.11;55.00;99104.06;5093268;27;45469;-63
2023/07/08 02:42:11;;;;;;;;;7.75;5.50;;;;;25.03;55.31;99104.81;5094364;27;45466;-63
2023/07/08 02:44:36;;;;;;;;;12.75;11.00;;;;;24.97;55.29;99113.53;5093914;27;45443;-63
2023/07/08 02:47:02;;;;;;;;;12.00;11.00;;;;;24.91;55.40;99114.97;5095719;27;48715;-63
2023/07/08 02:49:28;;;;;;;;;14.00;8.25;;;;;24.87;55.29;99126.22;5095154;27;45483;-63
2023/07/08 02:51:53;;;;;;;;;10.75;10.50;;;;;24.80;55.03;99130.53;5098057;27;45466;-63
2023/07/08 02:54:18;;;;;;;;;8.00;8.00;;;;;24.74;54.94;99128.41;5094848;27;45535;-63
2023/07/08 02:56:44;;;;;;;;;12.00;10.50;;;;;24.67;54.86;99125.47;5095185;27;45566;-63
2023/07/08 02:59:09;;;;;;;;;12.75;11.75;;;;;24.60;54.83;99122.53;5097091;27;45435;-64
2023/07/08 03:01:41;;;;;;;;;10.50;10.50;;;;;24.57;54.95;99139.00;5090246;27;45448;-64
2023/07/08 03:04:13;;;;;;;;;12.25;9.50;;;;;24.55;55.36;99130.22;5095431;27;45496;-64
2023/07/08 03:06:45;;;;;;;;;9.80;9.80;;;;;24.55;54.63;99134.75;5088860;27;46519;-64
2023/07/08 03:09:12;;;;;;;;;10.60;9.80;;;;;24.51;55.21;99136.06;5095281;27;45467;-64
2023/07/08 03:11:38;;;;;;;;;8.60;8.60;;;;;24.46;54.94;99144.63;5092145;27;45449;-63
2023/07/08 03:14:04;;;;;;;;;11.00;8.80;;;;;24.43;55.06;99135.97;5096779;27;45384;-64
2023/07/08 03:16:29;;;;;;;;;11.25;9.00;;;;;24.43;54.70;99139.50;5093011;27;45488;-63
2023/07/08 03:18:55;;;;;;;;;9.75;9.75;;;;;24.47;54.75;99140.88;5095119;27;45603;-64
2023/07/08 03:21:21;;;;;;;;;11.00;10.00;;;;;24.48;54.90;99145.28;5091323;27;45627;-64
2023/07/08 03:23:48;;;;;;;;;9.75;9.00;;;;;24.53;54.72;99155.63;5096329;27;45537;-64
2023/07/08 03:26:16;;;;;;;;;10.20;10.20;;;;;24.56;54.75;99158.88;5091933;27;45481;-64
2023/07/08 03:28:42;;;;;;;;;10.40;10.40;;;;;24.58;55.06;99151.50;5096388;27;45339;-63
2023/07/08 03:31:09;;;;;;;;;12.00;10.75;;;;;24.64;55.21;99171.59;5095264;27;45613;-63
2023/07/08 03:33:35;;;;;;;;;15.75;12.50;;;;;24.69;55.83;99183.66;5095934;27;45447;-63
2023/07/08 03:36:01;;;;;;;;;12.50;11.50;;;;;24.74;55.08;99172.41;5093184;27;45562;-64
2023/07/08 03:38:27;;;;;;;;;10.00;9.60;;;;;24.80;55.35;99165.59;5096894;27;45415;-64
2023/07/08 03:40:52;;;;;;;;;12.75;10.75;;;;;24.82;55.39;99163.56;5096791;27;45459;-63
2023/07/08 03:43:18;;;;;;;;;10.50;10.50;;;;;24.85;55.73;99166.81;5096372;27;45510;-64
2023/07/08 03:45:44;;;;;;;;;12.00;12.00;;;;;24.88;55.61;99185.41;5094507;27;48200;-64
2023/07/08 03:48:13;;;;;;;;;10.20;9.40;;;;;24.91;55.25;99182.41;5096246;27;45311;-63
2023/07/08 03:50:39;;;;;;;;;9.80;8.80;;;;;24.91;54.30;99182.41;5094879;27;45480;-64
2023/07/08 03:53:05;;;;;;;;;4.25;3.00;;;;;24.88;53.51;99179.16;5095973;27;45402;-64
2023/07/08 03:55:30;;;;;;;;;8.50;8.50;;;;;24.84;53.20;99181.28;5095811;27;46344;-63
2023/07/08 03:57:55;;;;;;;;;8.75;7.75;;;;;24.81;53.06;99183.44;5094653;27;45368;-63
2023/07/08 04:00:21;;;;;;;;;7.00;7.00;;;;;24.79;53.48;99180.91;5095929;27;45489;-63
2023/07/08 04:02:47;;;;;;;;;10.75;7.50;;;;;24.78;53.56;99181.06;5096360;27;45592;-63
2023/07/08 04:05:20;;;;;;;;;9.25;6.75;;;;;24.75;52.96;99174.13;5092027;27;45675;-63
2023/07/08 04:07:46;;;;;;;;;10.20;8.60;;;;;24.70;53.20;99182.66;5091827;27;45405;-63
2023/07/08 04:10:13;;;;;;;;;9.40;9.00;;;;;24.64;53.51;99187.78;5094343;27;45519;-63
2023/07/08 04:12:39;;;;;;;;;8.60;6.20;;;;;24.53;53.52;99188.81;5095175;27;45650;-63
2023/07/08 04:15:07;;;;;;;;;9.40;8.20;;;;;24.44;53.28;99188.88;5092989;27;45565;-64
2023/07/08 04:17:32;;;;;;;;;7.40;7.40;;;;;24.37;53.19;99185.06;5094759;27;45552;-63
2023/07/08 04:20:05;;;;;;;;;8.50;7.00;;;;;24.34;53.22;99188.91;5092564;27;45544;-64
2023/07/08 04:22:31;;;;;;;;;7.75;7.75;;;;;24.33;53.15;99184.50;5093975;27;45475;-64
2023/07/08 04:24:56;;;;;;;;;10.75;10.00;;;;;24.33;53.00;99195.28;5092011;27;45805;-64
2023/07/08 04:27:22;;;;;;;;;9.75;9.25;;;;;24.32;53.92;99196.28;5094379;27;45338;-64
2023/07/08 04:29:48;;;;;;;;;8.00;7.00;;;;;24.31;53.76;99197.25;5094174;27;45804;-64
2023/07/08 04:32:13;;;;;;;;;12.00;9.25;;;;;24.34;54.43;99202.38;5106296;27;45537;-64
2023/07/08 04:34:39;;;;;;;;;9.50;8.00;;;;;24.35;54.17;99196.84;5092930;27;45439;-64
2023/07/08 04:37:04;;;;;;;;;9.75;7.25;;;;;24.37;53.97;99203.91;5094054;27;45526;-64
2023/07/08 04:39:30;;;;;;;;;7.50;7.50;;;;;24.40;53.57;99207.19;5093246;27;45496;-64
2023/07/08 04:41:56;;;;;;;;;9.50;9.00;;;;;24.41;53.97;99213.41;5092818;27;45502;-63
2023/07/08 04:44:22;;;;;;;;;10.50;9.75;;;;;24.42;53.58;99215.97;5093323;27;46147;-64
2023/07/08 04:46:54;;;;;;;;;10.75;10.00;;;;;24.40;53.35;99220.66;5092128;27;45625;-63
2023/07/08 04:49:21;;;;;;;;;9.60;8.60;;;;;24.34;53.76;99223.94;5091405;27;45602;-63
2023/07/08 04:51:47;;;;;;;;;9.40;9.40;;;;;24.30;53.51;99228.75;5093380;27;45542;-64
2023/07/08 04:54:12;;;;;;;;;8.40;8.40;;;;;24.23;53.68;99245.63;5092890;27;45682;-63
2023/07/08 04:56:49;;;;;;;;;11.00;9.25;;;;;24.17;53.58;99235.41;5093576;27;45509;-63
2023/07/08 04:59:17;;;;;;;;;10.20;9.00;;;;;24.10;53.91;99243.25;5093126;27;45564;-63
2023/07/08 05:01:42;;;;;;;;;3.00;3.00;;;;;24.06;53.95;99238.28;5093145;27;45670;-63
2023/07/08 05:04:12;;;;;;;;;11.50;9.75;;;;;24.05;54.26;99237.44;5090877;27;45513;-64
2023/07/08 05:06:38;;;;;;;;;10.80;7.80;;;;;24.03;54.22;99244.81;5123870;27;45468;-63
2023/07/08 05:09:03;;;;;;;;;8.25;6.75;;;;;24.03;54.13;99239.41;5092428;27;45499;-63
2023/07/08 05:11:29;;;;;;;;;11.50;10.00;;;;;24.05;54.32;99250.06;5089188;27;45585;-64
2023/07/08 05:13:55;;;;;;;;;10.60;9.20;;;;;24.05;54.11;99245.50;5092098;27;45419;-63
2023/07/08 05:16:20;;;;;;;;;9.50;8.00;;;;;24.06;53.91;99249.91;5093390;27;45586;-63
2023/07/08 05:18:46;;;;;;;;;12.00;7.50;;;;;24.08;54.21;99247.94;5091388;27;45597;-63
2023/07/08 05:21:12;;;;;;;;;9.25;8.00;;;;;24.07;54.38;99251.63;5093872;27;45395;-63
2023/07/08 05:23:37;;;;;;;;;13.00;11.00;;;;;24.06;54.61;99246.38;5093105;27;46245;-63
2023/07/08 05:26:05;;;;;;;;;9.25;8.25;;;;;24.06;54.02;99249.91;5093132;27;45347;-63
2023/07/08 05:28:31;;;;;;;;;9.40;8.60;;;;;24.08;54.05;99252.47;5091089;27;45468;-63
2023/07/08 05:30:56;;;;;;;;;13.00;8.25;;;;;24.11;54.34;99260.25;5092198;27;45584;-63
2023/07/08 05:33:24;;;;;;;;;8.25;7.00;;;;;24.12;54.46;99259.28;5091308;27;45488;-63
2023/07/08 05:35:49;;;;;;;;;7.00;7.00;;;;;24.14;54.19;99271.56;5091586;27;45505;-63
2023/07/08 05:38:15;;;;;;;;;9.00;8.25;;;;;24.16;54.50;99264.19;5105268;27;45438;-63
2023/07/08 05:40:40;;;;;;;;;4.25;4.00;;;;;24.17;54.43;99270.44;5091074;27;45436;-63
2023/07/08 05:43:06;;;;;;;;;8.25;7.75;;;;;24.18;54.98;99283.78;5090846;27;46449;-64
2023/07/08 05:45:31;;;;;;;;;11.25;8.75;;;;;24.19;54.81;99281.94;5090004;27;45468;-63
2023/07/08 05:47:57;;;;;;;;;9.00;9.00;;;;;24.21;54.82;99282.63;5091961;27;45470;-63
2023/07/08 05:50:23;;;;;;;;;10.00;8.50;;;;;24.20;54.29;99284.47;5089554;27;45574;-63
2023/07/08 05:52:49;;;;;;;;;10.00;7.75;;;;;24.21;53.91;99296.13;5092419;27;45544;-63
2023/07/08 05:55:14;;;;;;;;;8.25;8.25;;;;;24.20;54.34;99291.72;5090872;27;45498;-65
2023/07/08 05:57:40;;;;;;;;;7.25;6.25;;;;;24.18;53.98;99297.25;5091647;27;45673;-62
2023/07/08 06:00:06;;;;;;;;;8.25;7.50;;;;;24.18;53.88;99296.38;5090834;27;45497;-62
2023/07/08 06:02:31;;;;;;;;;9.20;8.60;;;;;24.16;54.75;99293.84;5090711;27;46461;-64
2023/07/08 06:04:56;;;;;;;;;10.25;10.00;;;;;24.18;55.22;99301.78;5090198;27;45542;-65
2023/07/08 06:07:22;;;;;;;;;7.50;7.25;;;;;24.19;55.35;99308.88;5091144;27;45738;-64
2023/07/08 06:09:47;;;;;;;;;10.00;9.25;;;;;24.22;54.90;99308.59;5090547;27;45549;-65
2023/07/08 06:12:12;;;;;;;;;11.00;10.00;;;;;24.23;54.79;99310.28;5090497;27;45497;-65
2023/07/08 06:14:38;;;;;;;;;11.00;9.75;;;;;24.25;54.93;99316.44;5088987;27;45408;-63
2023/07/08 06:17:04;;;;;;;;;10.75;10.75;;;;;24.26;54.82;99318.13;5087393;27;45429;-59
2023/07/08 06:19:29;;;;;;;;;0.50;0.25;;;;;24.29;54.09;99316.00;5087863;27;46105;-59
2023/07/08 06:21:55;;;;;;;;;9.00;8.25;;;;;24.32;54.37;99318.38;5089660;27;45603;-59
2023/07/08 06:24:20;;;;;;;;;8.50;8.50;;;;;24.33;54.50;99322.78;5091108;27;45458;-59
2023/07/08 06:26:46;;;;;;;;;9.25;9.25;;;;;24.34;54.30;99319.09;5090204;27;45758;-58
2023/07/08 06:29:11;;;;;;;;;8.50;7.00;;;;;24.35;54.25;99323.50;5090034;27;45573;-59
2023/07/08 06:31:37;;;;;;;;;9.25;9.25;;;;;24.37;54.64;99331.44;5090451;27;45443;-59
2023/07/08 06:34:04;;;;;;;;;9.50;8.75;;;;;24.38;53.94;99333.13;5086933;27;45564;-58
2023/07/08 06:36:29;;;;;;;;;6.20;5.20;;;;;24.39;54.03;99332.16;5091484;27;45565;-65
2023/07/08 06:38:55;;;;;;;;;10.00;9.50;;;;;24.45;53.95;99336.13;5082023;27;45375;-59
2023/07/08 06:41:20;;;;;;;;;8.25;8.25;;;;;24.49;53.41;99332.13;5085557;27;46723;-59
2023/07/08 06:43:46;;;;;;;;;8.25;7.75;;;;;24.52;53.61;99334.53;5089398;27;45577;-59
2023/07/08 06:46:11;;;;;;;;;9.50;9.50;;;;;24.54;53.75;99338.78;5081450;27;45996;-59
2023/07/08 06:48:36;;;;;;;;;9.50;8.00;;;;;24.56;53.69;99342.19;5088434;27;45404;-59
2023/07/08 06:51:02;;;;;;;;;8.75;8.00;;;;;24.59;53.27;99341.06;5090261;27;45890;-59
2023/07/08 06:53:27;;;;;;;;;11.50;8.25;;;;;24.62;53.33;99335.38;5090599;27;45446;-59
2023/07/08 06:55:53;;;;;;;;;10.00;9.25;;;;;24.63;53.45;99351.38;5090359;27;46121;-58
2023/07/08 06:58:18;;;;;;;;;9.00;8.00;;;;;24.66;53.63;99337.63;5091071;27;45504;-59
2023/07/08 07:00:45;;;;;;;;;9.00;8.50;;;;;24.71;53.23;99347.97;5098097;27;48466;-59
2023/07/08 07:03:12;;;;;;;;;8.40;8.20;;;;;24.74;53.44;99346.84;5091325;27;45477;-59
2023/07/08 07:05:37;;;;;;;;;7.00;7.00;;;;;24.77;52.87;99350.09;5088619;27;45432;-58
2023/07/08 07:08:04;;;;;;;;;7.00;6.00;;;;;24.79;52.49;99347.25;5089228;27;45482;-58
2023/07/08 07:10:29;;;;;;;;;7.20;7.20;;;;;24.83;52.47;99352.19;5090088;27;45602;-58
2023/07/08 07:12:55;;;;;;;;;8.25;8.25;;;;;24.88;52.49;99358.00;5090919;27;45516;-58
2023/07/08 07:15:20;;;;;;;;;7.50;7.50;;;;;24.94;52.62;99362.88;5088315;27;46261;-59
2023/07/08 07:17:46;;;;;;;;;4.25;2.75;;;;;25.01;52.27;99352.31;5088556;27;45583;-57
2023/07/08 07:20:12;;;;;;;;;6.75;6.75;;;;;25.06;51.26;99358.13;5088541;27;45484;-58
2023/07/08 07:22:37;;;;;;;;;8.80;8.00;;;;;25.08;50.91;99356.13;5090571;27;45465;-58
2023/07/08 07:25:03;;;;;;;;;11.00;7.75;;;;;25.11;50.67;99358.56;5089006;27;45441;-58
2023/07/08 07:27:29;;;;;;;;;8.20;6.00;;;;;25.14;50.08;99369.03;5090791;27;45575;-58
2023/07/08 07:29:54;;;;;;;;;9.00;9.00;;;;;25.18;50.38;99361.47;5088446;27;45549;-58
2023/07/08 07:32:23;;;;;;;;;8.00;7.25;;;;;25.20;50.23;99354.94;5102553;27;46124;-58
2023/07/08 07:34:49;;;;;;;;;8.80;7.00;;;;;25.26;50.00;99359.75;5091530;27;45368;-58
2023/07/08 07:37:17;;;;;;;;;9.50;7.50;;;;;25.34;49.75;99353.59;5093463;27;45572;-58
2023/07/08 07:39:43;;;;;;;;;6.60;6.60;;;;;25.39;49.77;99357.56;5092728;27;45752;-58
2023/07/08 07:42:10;;;;;;;;;6.25;5.75;;;;;25.47;49.91;99353.28;5105645;27;45474;-58
2023/07/08 07:44:35;;;;;;;;;7.60;7.60;;;;;25.55;50.18;99346.09;5094239;27;45517;-59
2023/07/08 07:47:02;;;;;;;;;12.25;8.75;;;;;25.65;49.59;99346.06;5094248;27;45459;-58
2023/07/08 07:49:27;;;;;;;;;8.00;8.00;;;;;25.70;49.43;99346.47;5092562;27;45679;-58
2023/07/08 07:51:52;;;;;;;;;1.75;1.75;;;;;25.75;49.28;99344.16;5093975;27;45472;-57
2023/07/08 07:54:18;;;;;;;;;8.75;7.00;;;;;25.81;48.90;99343.53;5093075;27;45425;-58
2023/07/08 07:56:43;;;;;;;;;6.25;6.25;;;;;25.86;48.86;99343.94;5093596;27;45383;-58
2023/07/08 07:59:10;;;;;;;;;8.00;6.75;;;;;25.92;48.78;99348.75;5092110;27;46102;-58
2023/07/08 08:01:35;;;;;;;;;8.60;7.00;;;;;25.96;48.88;99347.44;5093313;27;45474;-59
2023/07/08 08:04:01;;;;;;;;;7.25;7.25;;;;;26.01;48.90;99346.97;5091955;27;46505;-58
2023/07/08 08:06:26;;;;;;;;;7.00;6.50;;;;;26.05;48.89;99348.34;5093973;27;45520;-59
2023/07/08 08:08:51;;;;;;;;;4.50;4.00;;;;;26.11;49.00;99346.91;5092637;27;46531;-58
2023/07/08 08:11:17;;;;;;;;;8.25;8.25;;;;;26.14;49.07;99346.59;5093165;27;45589;-58
2023/07/08 08:13:42;;;;;;;;;7.50;7.00;;;;;26.18;48.62;99345.25;5093356;27;45644;-59
2023/07/08 08:16:08;;;;;;;;;7.00;7.00;;;;;26.22;48.59;99335.84;5093042;27;45736;-59
2023/07/08 08:18:33;;;;;;;;;8.50;7.00;;;;;26.24;48.03;99336.53;5090983;27;46500;-59
2023/07/08 08:20:59;;;;;;;;;10.50;8.75;;;;;26.28;48.41;99332.53;5093655;27;45609;-59
2023/07/08 08:23:25;;;;;;;;;9.25;7.75;;;;;26.30;48.41;99339.50;5093419;27;45371;-59
2023/07/08 08:25:51;;;;;;;;;7.00;7.00;;;;;26.34;48.41;99329.22;5092635;27;45477;-59
2023/07/08 08:28:16;;;;;;;;;11.00;10.00;;;;;26.37;47.80;99332.47;5093542;27;46256;-59
2023/07/08 08:30:42;;;;;;;;;9.25;8.00;;;;;26.41;47.64;99336.56;5093209;27;45707;-59
2023/07/08 08:33:07;;;;;;;;;10.75;8.00;;;;;26.48;47.78;99331.34;5093160;27;45371;-59
2023/07/08 08:35:33;;;;;;;;;7.00;7.00;;;;;26.54;47.92;99330.72;5092560;27;46555;-59
2023/07/08 08:37:58;;;;;;;;;8.25;7.00;;;;;26.60;47.91;99324.69;5093059;27;46595;-59
2023/07/08 08:40:23;;;;;;;;;11.50;9.00;;;;;26.64;47.69;99331.50;5092928;27;45470;-59
2023/07/08 08:43:10;;;;;;;;;10.75;10.25;;;;;26.68;47.91;99340.97;5092452;27;45439;-59
2023/07/08 08:45:46;;;;;;;;;10.20;10.00;;;;;26.71;47.42;99331.69;5091159;27;45450;-59
2023/07/08 08:48:16;;;;;;;;;8.60;8.60;;;;;26.76;47.56;99332.91;5091956;27;45474;-59
2023/07/08 08:50:43;;;;;;;;;10.00;10.00;;;;;26.81;47.44;99335.16;5091996;27;45468;-59
2023/07/08 08:53:12;;;;;;;;;9.40;9.40;;;;;26.86;46.87;99340.91;5092657;27;45557;-59
2023/07/08 08:55:37;;;;;;;;;10.25;7.75;;;;;26.89;47.13;99337.91;5091176;27;45553;-59
2023/07/08 08:58:21;;;;;;;;;9.50;9.00;;;;;26.97;47.21;99337.13;5092209;27;45517;-59
2023/07/08 09:01:00;;;;;;;;;11.40;10.20;;;;;27.00;46.93;99339.50;5091662;27;45456;-59
2023/07/08 09:03:59;;;;;;;;;13.60;11.20;;;;;27.05;46.70;99343.44;5090788;27;45630;-59
2023/07/08 09:06:32;;;;;;;;;11.20;11.00;;;;;27.09;46.51;99349.38;5089161;27;45581;-58
2023/07/08 09:09:16;;;;;;;;;10.20;10.20;;;;;27.14;47.30;99352.47;5083053;27;45651;-57
2023/07/08 09:11:51;;;;;;;;;9.80;8.20;;;;;27.18;46.70;99344.84;5087203;27;45471;-57
2023/07/08 09:14:24;;;;;;;;;10.00;10.00;;;;;27.21;46.14;99353.50;5088840;27;45782;-57
2023/07/08 09:17:04;;;;;;;;;8.80;8.80;;;;;27.21;46.22;99355.34;5091575;27;45426;-57
2023/07/08 09:19:39;;;;;;;;;12.00;9.60;;;;;27.23;46.15;99350.63;5089644;27;45695;-56
2023/07/08 09:22:08;;;;;;;;;13.00;9.20;;;;;27.23;45.98;99346.06;5091394;27;45405;-57
2023/07/08 09:24:49;;;;;;;;;6.40;6.40;;;;;27.26;46.40;99350.31;5091639;27;45526;-57
2023/07/08 09:27:14;;;;;;;;;10.75;9.00;;;;;27.28;46.51;99346.44;5091190;27;45347;-58
2023/07/08 09:29:40;;;;;;;;;9.75;8.25;;;;;27.33;45.85;99354.03;5089841;27;46214;-57
2023/07/08 09:32:18;;;;;;;;;10.50;10.25;;;;;27.35;45.38;99350.16;5092906;27;45356;-58
2023/07/08 09:34:54;;;;;;;;;9.40;9.40;;;;;27.41;45.65;99345.97;5084186;27;45447;-57
2023/07/08 09:37:34;;;;;;;;;9.60;6.80;;;;;27.44;45.60;99342.94;5093252;27;45497;-57
2023/07/08 09:40:03;;;;;;;;;8.40;8.40;;;;;27.49;46.09;99340.56;5089137;27;46270;-57
2023/07/08 09:42:34;;;;;;;;;9.60;8.40;;;;;27.55;45.21;99331.81;5088065;27;45532;-59
2023/07/08 09:45:22;;;;;;;;;9.60;9.00;;;;;27.62;44.91;99337.47;5089797;27;45421;-57
2023/07/08 09:47:51;;;;;;;;;9.60;9.00;;;;;27.69;44.24;99346.59;5083492;27;45577;-61
2023/07/08 09:50:18;;;;;;;;;9.20;9.00;;;;;27.77;44.69;99343.94;5089247;27;46419;-60
2023/07/08 09:52:45;;;;;;;;;9.80;9.60;;;;;27.87;44.73;99338.34;5087678;27;45423;-60
2023/07/08 09:55:11;;;;;;;;;8.00;8.00;;;;;27.99;44.83;99343.28;5090317;27;45465;-60
2023/07/08 09:57:38;;;;;;;;;10.00;9.25;;;;;28.09;44.36;99338.56;5092841;27;45411;-60
2023/07/08 10:00:11;;;;;;;;;8.80;7.40;;;;;28.16;43.57;99344.16;5083021;27;45480;-61
2023/07/08 10:02:40;;;;;;;;;10.80;9.40;;;;;28.24;43.21;99352.34;5090174;27;45453;-60
2023/07/08 10:05:31;;;;;;;;;7.40;7.00;;;;;28.31;42.97;99350.66;5081782;27;45382;-61
2023/07/08 10:07:58;;;;;;;;;9.40;8.60;;;;;28.37;43.50;99343.69;5091973;27;45919;-59
2023/07/08 10:10:31;;;;;;;;;8.00;8.00;;;;;28.44;43.25;99350.13;5092194;27;45613;-61
2023/07/08 10:13:11;;;;;;;;;9.60;8.20;;;;;28.53;43.57;99340.13;5087849;27;45588;-61
2023/07/08 10:15:49;;;;;;;;;12.20;8.80;;;;;28.62;43.16;99341.81;5088414;27;45450;-59
2023/07/08 10:18:17;;;;;;;;;9.50;9.00;;;;;28.70;43.32;99336.38;5086661;27;45460;-60
2023/07/08 10:21:07;;;;;;;;;9.80;8.80;;;;;28.78;43.12;99333.66;5090284;27;46222;-61
2023/07/08 10:23:40;;;;;;;;;7.40;7.40;;;;;28.86;42.22;99336.38;5085056;27;45401;-61
2023/07/08 10:26:17;;;;;;;;;10.20;10.00;;;;;28.93;43.18;99325.69;5088791;27;45370;-61
2023/07/08 10:28:58;;;;;;;;;7.00;7.00;;;;;29.03;42.74;99329.03;5085445;27;45373;-61
2023/07/08 10:31:48;;;;;;;;;8.40;7.60;;;;;29.10;41.48;99330.03;5089196;27;46780;-60
2023/07/08 10:34:36;;;;;;;;;9.60;9.60;;;;;29.14;42.01;99323.25;5089474;27;45518;-61
2023/07/08 10:37:19;;;;;;;;;12.60;11.00;;;;;29.20;41.60;99325.25;5092103;27;45450;-61
2023/07/08 10:39:54;;;;;;;;;7.25;7.25;;;;;29.24;40.72;99331.19;5084576;27;45462;-61
2023/07/08 10:42:44;;;;;;;;;7.00;6.20;;;;;29.29;41.05;99324.22;5088913;27;48192;-61
2023/07/08 10:45:18;;;;;;;;;8.20;8.20;;;;;29.34;41.38;99326.38;5088933;27;45519;-61
2023/07/08 10:47:50;;;;;;;;;8.20;8.20;;;;;29.40;41.47;99320.28;5084165;27;45448;-61
2023/07/08 10:50:22;;;;;;;;;8.20;7.00;;;;;29.48;40.28;99325.69;5086556;27;45595;-61
2023/07/08 10:53:17;;;;;;;;;5.00;4.00;;;;;29.49;41.19;99311.91;5092533;27;46211;-61
2023/07/08 10:56:01;;;;;;;;;9.80;8.00;;;;;29.55;40.70;99313.06;5092058;27;45410;-61
2023/07/08 10:58:46;;;;;;;;;10.00;9.60;;;;;29.65;41.42;99312.88;5092889;27;45446;-61
2023/07/08 11:01:34;;;;;;;;;12.00;10.00;;;;;29.76;40.85;99312.44;5092042;27;45458;-61
2023/07/08 11:04:16;;;;;;;;;7.40;7.40;;;;;29.88;40.97;99302.84;5085491;27;46553;-60
2023/07/08 11:07:00;;;;;;;;;7.40;6.80;;;;;29.96;40.80;99307.41;5104524;27;45793;-60
2023/07/08 11:09:52;;;;;;;;;9.40;9.00;;;;;30.00;39.98;99301.41;5093310;27;45553;-61
2023/07/08 11:12:45;;;;;;;;;7.25;7.25;;;;;30.02;39.71;99306.69;5085128;27;45458;-61
2023/07/08 11:15:39;;;;;;;;;7.40;7.20;;;;;30.01;40.23;99299.56;5088630;27;46392;-61
2023/07/08 11:18:16;;;;;;;;;8.20;6.20;;;;;30.09;40.04;99296.78;5090399;27;45550;-61
2023/07/08 11:20:41;;;;;;;;;7.40;7.40;;;;;30.15;39.78;99294.19;5095690;27;45400;-61
2023/07/08 11:23:18;;;;;;;;;6.00;5.25;;;;;30.23;39.33;99287.81;5096201;27;45344;-60
2023/07/08 11:25:45;;;;;;;;;7.80;7.00;;;;;30.29;39.15;99297.13;5091245;27;46153;-61
2023/07/08 11:28:17;;;;;;;;;10.40;10.20;;;;;30.33;39.98;99288.41;5102669;27;45488;-60
2023/07/08 11:30:47;;;;;;;;;9.20;7.20;;;;;30.42;39.25;99287.31;5085945;27;45521;-60
2023/07/08 11:33:14;;;;;;;;;8.50;7.25;;;;;30.49;39.91;99299.16;5082605;27;45398;-60
2023/07/08 11:35:48;;;;;;;;;10.80;9.00;;;;;30.52;38.49;99285.16;5094954;27;45478;-60